KCTJ

Details ICAO KCTJ (CTJ)
Name WEST GEORGIA RGNL O V GRAY FLD
Region United States
Timezone America/New_York (UTC-5.0)
Plans Departing 0
Arriving 4
Stats Elevation 1,161 ft / 354 m (AMSL)
Location 33.631893° -85.152332°
Runways 1
Magnetic Variation 4.594° W
Sunrise 2017-12-15 12:39:17 UTC / 2017-12-15 07:39:17 Local
Sunset 2017-12-15 22:35:15 UTC / 2017-12-15 17:35:15 Local
Advertisement - Login to hide

Runways

ID Width Length Bearing (true) Bearing (mag) Surface Threshold Offset Overrun Length
17 100 ft / 30 m 5,667 ft / 1,727 m 163.91° 168.50° Asphalt 0 ft / 0 m 0 ft / 0 m
35 100 ft / 30 m 5,667 ft / 1,727 m 343.91° 348.50° Asphalt 0 ft / 0 m 0 ft / 0 m

Approach Navaids

Runway Type Ident Frequency Range Bearing (true) Bearing (mag) Slope Elevation
35 Localiser ICTJ 111.70 MHz 18 nm / 33 km 343.90° 348.49° - 1,161 ft / 354 m (AMSL)
35 Glidescope ICTJ 111.70 MHz 10 nm / 19 km 343.91° 348.50° 3.00° 1,161 ft / 354 m (AMSL)

Map

Weather


0- 5 10 15 20 25 30 35+ Temperature / ° C

Clouds and Precipitation
Forecast for 2017-12-15 12:00 UTC. Updated an hour ago

Ground ~20,000 ft ~40,000 ft Winds

METAR

KCTJ 151215Z AUTO 33004KT 10SM CLR 00/M02 A3006 RMK AO2 T00041019

TAF

Not found

Frequencies

Recorded 118.17 MHz AWOS 3
Clearance 121.60 MHz ATLANTA CLNC DEL
Unicom 122.70 MHz CTAF/UNICOM
Approach 121.00 MHz ATLANTA APP/DEP
Warning: Do not use this data for real-world aviation or navigation. No guarantee of current accuracy is given.